North Conway, NH

3:03 PM EDT on August 30, 2014 (GMT -0400)
Mount Washington Regional | Change Station
CLOSE
Current Station
Airport
Location: Whitefield,
Elevation: 1073 ft
Nearby Weather Stations

Elev 1073 ft 44.37 °N, 71.54 °W | Updated 11 minutes ago

Clear
Clear
76 °F
Feels Like 76 °F
N
8
Wind Variable Wind from WSW
Gusts 18 mph

Today
High -- | Low -- °F
--% Chance of Precip.
Yesterday
High -- | Low -- °F
Precip. -- in
6:05 AM 7:24 PM
Waxing Crescent, 24% visible
Pressure 30.14 in
Visibility 10.0 miles
Clouds Clear
Dew Point 53 °F
Humidity 45%
Rainfall 0.00 in
Snow Depth Not available.
UV 7 out of 12
Pollen 7.60 out of 12
Ozone Good
Flu Activity Not available.
METAR KHIE 301852Z AUTO 24007G16KT 10SM CLR 24/12 A3013 RMK AO2 SLP204 T02440117

More Conditions Fewer Conditions

Pressure 30.14 in
Visibility 10.0 miles
Clouds Clear
Dew Point 53 °F
Humidity 45%
Rainfall 0.00 in
Snow Depth Not available.
UV 7 out of 12
Pollen 7.60 out of 12
Ozone Good
Flu Activity Not available.
METAR KHIE 301852Z AUTO 24007G16KT 10SM CLR 24/12 A3013 RMK AO2 SLP204 T02440117

More Conditions Fewer Conditions

10-Day Weather Forecast

Almanac

Astronomy

Aug. 30, 2014 Rise Set
Actual Time 6:05 AM EDT 7:24 PM EDT
Civil Twilight 5:35 AM EDT 7:53 PM EDT
Nautical Twilight 4:59 AM EDT 8:29 PM EDT
Astronomical Twilight 4:21 AM EDT 9:07 PM EDT
Moon 11:01 AM EDT 9:44 PM EDT
Length of Visible Light 14h 18m
Length of Day
13h 18m
Tomorrow will be 2m 53s shorter.
Waxing Crescent, 24% of the Moon is Illuminated
Today
Waxing Crescent
Sep 2
First Quarter
Sep 8
Full
Sep 15
Last Quarter
Sep 24
New

Today's Extremes

State Highs State Lows

Community

WunderPhotos

Upload Photos

1,748,596 photos uploaded!

WunderBlogs® & News

Nearby

Air Quality

  Air Quality AQ Index Pollutant
Yesterday Good
OZONE
Current Good
OZONE
Saturday Good
PM2.5
Saturday Good
OZONE
Sunday Good
PM2.5
Sunday Good
OZONE
Monday Good
PM2.5
Monday Good
OZONE

Snow Depth

Station Depth Elevation
No new snow has been reported.

Earthquake Activity

City Distance Mag. Time & Date
No recent earthquake activity has been reported nearby.
Minimum magnitude displayed is 2.5.

Coastal Water Temperatures

Place Temperature
No Stations Reporting

Nearby Weather Stations